sensor_id;sensor_type;location;lat;lon;timestamp;pressure;altitude;pressure_sealevel;temperature;humidity
70544;BME280;58097;48.364;-1.224;2023-08-30T00:01:49;99196.16;;;16.66;81.04
70544;BME280;58097;48.364;-1.224;2023-08-30T00:04:14;99189.28;;;16.68;81.21
70544;BME280;58097;48.364;-1.224;2023-08-30T00:06:40;99187.81;;;16.66;81.70
70544;BME280;58097;48.364;-1.224;2023-08-30T00:09:05;99183.72;;;16.68;81.15
70544;BME280;58097;48.364;-1.224;2023-08-30T00:11:30;99182.84;;;16.68;81.45
70544;BME280;58097;48.364;-1.224;2023-08-30T00:14:06;99179.00;;;16.69;81.59
70544;BME280;58097;48.364;-1.224;2023-08-30T00:16:32;99177.50;;;16.60;82.63
70544;BME280;58097;48.364;-1.224;2023-08-30T00:18:58;99175.78;;;16.59;82.99
70544;BME280;58097;48.364;-1.224;2023-08-30T00:21:24;99172.13;;;16.58;82.91
70544;BME280;58097;48.364;-1.224;2023-08-30T00:23:50;99176.63;;;16.59;83.44
70544;BME280;58097;48.364;-1.224;2023-08-30T00:26:16;99164.81;;;16.64;82.63
70544;BME280;58097;48.364;-1.224;2023-08-30T00:28:41;99159.69;;;16.61;83.95
70544;BME280;58097;48.364;-1.224;2023-08-30T00:31:06;99159.25;;;16.64;83.47
70544;BME280;58097;48.364;-1.224;2023-08-30T00:33:32;99157.31;;;16.58;84.42
70544;BME280;58097;48.364;-1.224;2023-08-30T00:35:58;99150.69;;;16.59;83.96
70544;BME280;58097;48.364;-1.224;2023-08-30T00:38:26;99148.53;;;16.61;84.41
70544;BME280;58097;48.364;-1.224;2023-08-30T00:40:52;99143.16;;;16.59;84.32
70544;BME280;58097;48.364;-1.224;2023-08-30T00:43:19;99135.88;;;16.58;83.32
70544;BME280;58097;48.364;-1.224;2023-08-30T00:45:44;99138.66;;;16.58;83.48
70544;BME280;58097;48.364;-1.224;2023-08-30T00:48:10;99138.44;;;16.60;83.37
70544;BME280;58097;48.364;-1.224;2023-08-30T00:50:37;99136.28;;;16.62;83.22
70544;BME280;58097;48.364;-1.224;2023-08-30T00:53:03;99133.50;;;16.62;83.95
70544;BME280;58097;48.364;-1.224;2023-08-30T00:55:32;99120.63;;;16.61;83.48
70544;BME280;58097;48.364;-1.224;2023-08-30T00:57:59;99124.94;;;16.57;85.29
70544;BME280;58097;48.364;-1.224;2023-08-30T01:00:25;99127.31;;;16.53;86.25
70544;BME280;58097;48.364;-1.224;2023-08-30T01:02:50;99125.19;;;16.49;87.25
70544;BME280;58097;48.364;-1.224;2023-08-30T01:05:16;99124.09;;;16.43;87.42
70544;BME280;58097;48.364;-1.224;2023-08-30T01:07:41;99127.13;;;16.35;87.47
70544;BME280;58097;48.364;-1.224;2023-08-30T01:10:07;99120.69;;;16.34;87.86
70544;BME280;58097;48.364;-1.224;2023-08-30T01:12:45;99123.06;;;16.31;87.49
70544;BME280;58097;48.364;-1.224;2023-08-30T01:15:18;99115.56;;;16.31;88.47
70544;BME280;58097;48.364;-1.224;2023-08-30T01:17:45;99120.28;;;16.31;87.79
70544;BME280;58097;48.364;-1.224;2023-08-30T01:20:13;99120.28;;;16.31;88.64
70544;BME280;58097;48.364;-1.224;2023-08-30T01:27:45;99114.69;;;16.37;87.68
70544;BME280;58097;48.364;-1.224;2023-08-30T01:30:13;99129.69;;;16.36;88.14
70544;BME280;58097;48.364;-1.224;2023-08-30T01:32:39;99125.41;;;16.34;88.75
70544;BME280;58097;48.364;-1.224;2023-08-30T01:35:06;99125.84;;;16.37;88.72
70544;BME280;58097;48.364;-1.224;2023-08-30T01:37:33;99124.75;;;16.38;88.90
70544;BME280;58097;48.364;-1.224;2023-08-30T01:39:59;99119.81;;;16.40;88.46
70544;BME280;58097;48.364;-1.224;2023-08-30T01:42:26;99123.25;;;16.42;88.37
70544;BME280;58097;48.364;-1.224;2023-08-30T01:44:53;99117.22;;;16.46;87.86
70544;BME280;58097;48.364;-1.224;2023-08-30T01:47:23;99123.25;;;16.49;87.66
70544;BME280;58097;48.364;-1.224;2023-08-30T01:49:49;99117.22;;;16.46;88.85
70544;BME280;58097;48.364;-1.224;2023-08-30T01:52:16;99118.06;;;16.46;88.95
70544;BME280;58097;48.364;-1.224;2023-08-30T01:54:43;99108.84;;;16.46;88.45
70544;BME280;58097;48.364;-1.224;2023-08-30T01:57:09;99115.28;;;16.46;88.73
70544;BME280;58097;48.364;-1.224;2023-08-30T01:59:35;99110.78;;;16.45;88.74
70544;BME280;58097;48.364;-1.224;2023-08-30T02:02:00;99120.00;;;16.46;88.98
70544;BME280;58097;48.364;-1.224;2023-08-30T02:04:25;99113.78;;;16.43;88.88
70544;BME280;58097;48.364;-1.224;2023-08-30T02:09:29;99115.53;;;16.38;90.55
70544;BME280;58097;48.364;-1.224;2023-08-30T02:12:00;99127.34;;;16.33;89.64
70544;BME280;58097;48.364;-1.224;2023-08-30T02:14:29;99119.41;;;16.30;88.14
70544;BME280;58097;48.364;-1.224;2023-08-30T02:16:55;99117.25;;;16.32;89.03
70544;BME280;58097;48.364;-1.224;2023-08-30T02:19:21;99117.72;;;16.29;88.64
70544;BME280;58097;48.364;-1.224;2023-08-30T02:21:47;99125.00;;;16.30;88.40
70544;BME280;58097;48.364;-1.224;2023-08-30T02:24:13;99115.56;;;16.31;88.05
70544;BME280;58097;48.364;-1.224;2023-08-30T02:26:39;99120.47;;;16.36;88.28
70544;BME280;58097;48.364;-1.224;2023-08-30T02:29:05;99111.25;;;16.35;89.48
70544;BME280;58097;48.364;-1.224;2023-08-30T02:31:30;99116.19;;;16.33;89.49
70544;BME280;58097;48.364;-1.224;2023-08-30T02:33:55;99110.63;;;16.33;88.76
70544;BME280;58097;48.364;-1.224;2023-08-30T02:36:21;99114.03;;;16.35;88.71
70544;BME280;58097;48.364;-1.224;2023-08-30T02:38:46;99102.66;;;16.37;88.41
70544;BME280;58097;48.364;-1.224;2023-08-30T02:41:11;99112.97;;;16.36;88.36
70544;BME280;58097;48.364;-1.224;2023-08-30T02:43:37;99112.09;;;16.36;88.03
70544;BME280;58097;48.364;-1.224;2023-08-30T02:46:03;99102.88;;;16.35;88.52
70544;BME280;58097;48.364;-1.224;2023-08-30T02:48:29;99109.53;;;16.34;88.48
70544;BME280;58097;48.364;-1.224;2023-08-30T02:50:55;99100.31;;;16.34;88.06
70544;BME280;58097;48.364;-1.224;2023-08-30T02:53:20;99095.59;;;16.34;88.10
70544;BME280;58097;48.364;-1.224;2023-08-30T02:55:47;99093.66;;;16.35;87.95
70544;BME280;58097;48.364;-1.224;2023-08-30T02:58:13;99089.16;;;16.34;88.11
70544;BME280;58097;48.364;-1.224;2023-08-30T03:00:38;99093.88;;;16.33;88.32
70544;BME280;58097;48.364;-1.224;2023-08-30T03:03:03;99095.19;;;16.31;88.00
70544;BME280;58097;48.364;-1.224;2023-08-30T03:05:29;99100.97;;;16.29;88.25
70544;BME280;58097;48.364;-1.224;2023-08-30T03:07:54;99096.06;;;16.25;88.41
70544;BME280;58097;48.364;-1.224;2023-08-30T03:10:20;99102.94;;;16.22;88.48
70544;BME280;58097;48.364;-1.224;2023-08-30T03:12:45;99105.47;;;16.17;88.97
70544;BME280;58097;48.364;-1.224;2023-08-30T03:15:10;99103.56;;;16.18;88.65
70544;BME280;58097;48.364;-1.224;2023-08-30T03:17:36;99104.41;;;16.18;88.81
70544;BME280;58097;48.364;-1.224;2023-08-30T03:20:02;99110.84;;;16.19;88.13
70544;BME280;58097;48.364;-1.224;2023-08-30T03:22:29;99100.75;;;16.18;87.64
70544;BME280;58097;48.364;-1.224;2023-08-30T03:24:54;99104.41;;;16.18;87.83
70544;BME280;58097;48.364;-1.224;2023-08-30T03:27:19;99106.34;;;16.18;88.19
70544;BME280;58097;48.364;-1.224;2023-08-30T03:29:45;99095.19;;;16.18;87.86
70544;BME280;58097;48.364;-1.224;2023-08-30T03:32:16;99101.84;;;16.17;88.33
70544;BME280;58097;48.364;-1.224;2023-08-30T03:34:44;99096.47;;;16.15;87.88
70544;BME280;58097;48.364;-1.224;2023-08-30T03:37:10;99089.41;;;16.13;87.68
70544;BME280;58097;48.364;-1.224;2023-08-30T03:39:35;99090.91;;;16.15;87.39
70544;BME280;58097;48.364;-1.224;2023-08-30T03:42:01;99088.97;;;16.16;87.43
70544;BME280;58097;48.364;-1.224;2023-08-30T03:44:26;99090.06;;;16.15;87.46
70544;BME280;58097;48.364;-1.224;2023-08-30T03:46:51;99094.13;;;16.19;87.85
70544;BME280;58097;48.364;-1.224;2023-08-30T03:49:17;99088.13;;;16.22;87.84
70544;BME280;58097;48.364;-1.224;2023-08-30T03:51:42;99081.25;;;16.24;87.65
70544;BME280;58097;48.364;-1.224;2023-08-30T03:54:07;99098.44;;;16.21;87.14
70544;BME280;58097;48.364;-1.224;2023-08-30T03:56:38;99102.28;;;16.20;87.76
70544;BME280;58097;48.364;-1.224;2023-08-30T03:59:03;99095.00;;;16.19;87.48
70544;BME280;58097;48.364;-1.224;2023-08-30T04:01:29;99105.09;;;16.20;87.66
70544;BME280;58097;48.364;-1.224;2023-08-30T04:03:54;99100.13;;;16.22;87.64
70544;BME280;58097;48.364;-1.224;2023-08-30T04:06:19;99093.50;;;16.23;87.76
70544;BME280;58097;48.364;-1.224;2023-08-30T04:08:46;99096.69;;;16.27;87.64
70544;BME280;58097;48.364;-1.224;2023-08-30T04:11:12;99091.31;;;16.32;87.45
70544;BME280;58097;48.364;-1.224;2023-08-30T04:13:37;99094.97;;;16.32;87.29
70544;BME280;58097;48.364;-1.224;2023-08-30T04:16:02;99085.53;;;16.33;87.87
70544;BME280;58097;48.364;-1.224;2023-08-30T04:18:29;99082.72;;;16.33;87.76
70544;BME280;58097;48.364;-1.224;2023-08-30T04:20:54;99079.09;;;16.33;87.68
70544;BME280;58097;48.364;-1.224;2023-08-30T04:23:19;99081.25;;;16.31;87.54
70544;BME280;58097;48.364;-1.224;2023-08-30T04:25:45;99079.75;;;16.28;87.94
70544;BME280;58097;48.364;-1.224;2023-08-30T04:28:10;99081.03;;;16.26;87.35
70544;BME280;58097;48.364;-1.224;2023-08-30T04:30:37;99074.63;;;16.25;87.36
70544;BME280;58097;48.364;-1.224;2023-08-30T04:33:04;99079.97;;;16.27;87.68
70544;BME280;58097;48.364;-1.224;2023-08-30T04:35:30;99083.84;;;16.26;87.51
70544;BME280;58097;48.364;-1.224;2023-08-30T04:37:55;99076.53;;;16.25;87.67
70544;BME280;58097;48.364;-1.224;2023-08-30T04:40:20;99074.84;;;16.24;88.04
70544;BME280;58097;48.364;-1.224;2023-08-30T04:42:46;99075.25;;;16.27;87.87
70544;BME280;58097;48.364;-1.224;2023-08-30T04:45:11;99070.75;;;16.26;87.95
70544;BME280;58097;48.364;-1.224;2023-08-30T04:47:36;99078.25;;;16.26;87.82
70544;BME280;58097;48.364;-1.224;2023-08-30T04:50:02;99073.53;;;16.26;87.67
70544;BME280;58097;48.364;-1.224;2023-08-30T04:52:27;99067.97;;;16.26;87.79
70544;BME280;58097;48.364;-1.224;2023-08-30T04:54:53;99077.63;;;16.24;87.43
70544;BME280;58097;48.364;-1.224;2023-08-30T04:57:18;99075.06;;;16.22;87.19
70544;BME280;58097;48.364;-1.224;2023-08-30T04:59:44;99080.63;;;16.22;87.69
70544;BME280;58097;48.364;-1.224;2023-08-30T05:02:10;99082.34;;;16.23;87.81
70544;BME280;58097;48.364;-1.224;2023-08-30T05:04:36;99087.91;;;16.23;87.57
70544;BME280;58097;48.364;-1.224;2023-08-30T05:07:02;99081.25;;;16.24;87.75
70544;BME280;58097;48.364;-1.224;2023-08-30T05:09:28;99082.34;;;16.23;87.50
70544;BME280;58097;48.364;-1.224;2023-08-30T05:11:53;99076.13;;;16.21;87.71
70544;BME280;58097;48.364;-1.224;2023-08-30T05:14:19;99078.28;;;16.19;87.57
70544;BME280;58097;48.364;-1.224;2023-08-30T05:16:45;99081.06;;;16.19;87.67
70544;BME280;58097;48.364;-1.224;2023-08-30T05:19:10;99086.66;;;16.19;87.81
70544;BME280;58097;48.364;-1.224;2023-08-30T05:21:36;99087.03;;;16.16;88.02
70544;BME280;58097;48.364;-1.224;2023-08-30T05:24:02;99087.03;;;16.16;88.53
70544;BME280;58097;48.364;-1.224;2023-08-30T05:26:27;99085.34;;;16.15;87.80
70544;BME280;58097;48.364;-1.224;2023-08-30T05:28:53;99083.41;;;16.16;87.80
70544;BME280;58097;48.364;-1.224;2023-08-30T05:31:18;99083.19;;;16.17;88.11
70544;BME280;58097;48.364;-1.224;2023-08-30T05:33:43;99090.28;;;16.20;88.25
70544;BME280;58097;48.364;-1.224;2023-08-30T05:36:09;99096.25;;;16.17;88.11
70544;BME280;58097;48.364;-1.224;2023-08-30T05:38:34;99094.78;;;16.14;88.50
70544;BME280;58097;48.364;-1.224;2023-08-30T05:40:59;99098.41;;;16.15;88.18
70544;BME280;58097;48.364;-1.224;2023-08-30T05:43:25;99097.56;;;16.14;88.37
70544;BME280;58097;48.364;-1.224;2023-08-30T05:45:50;99101.41;;;16.13;88.26
70544;BME280;58097;48.364;-1.224;2023-08-30T05:48:16;99094.78;;;16.14;88.37
70544;BME280;58097;48.364;-1.224;2023-08-30T05:50:41;99098.41;;;16.15;88.51
70544;BME280;58097;48.364;-1.224;2023-08-30T05:53:07;99097.97;;;16.18;88.35
70544;BME280;58097;48.364;-1.224;2023-08-30T05:55:32;99099.50;;;16.20;88.45
70544;BME280;58097;48.364;-1.224;2023-08-30T05:57:57;99104.88;;;16.22;88.61
70544;BME280;58097;48.364;-1.224;2023-08-30T06:00:23;99100.75;;;16.18;88.60
70544;BME280;58097;48.364;-1.224;2023-08-30T06:02:48;99103.78;;;16.16;88.77
70544;BME280;58097;48.364;-1.224;2023-08-30T06:05:16;99101.84;;;16.17;88.84
70544;BME280;58097;48.364;-1.224;2023-08-30T06:07:41;99104.00;;;16.15;88.79
70544;BME280;58097;48.364;-1.224;2023-08-30T06:10:07;99116.00;;;16.15;88.95
70544;BME280;58097;48.364;-1.224;2023-08-30T06:12:32;99119.00;;;16.14;88.73
70544;BME280;58097;48.364;-1.224;2023-08-30T06:14:58;99122.88;;;16.13;88.93
70544;BME280;58097;48.364;-1.224;2023-08-30T06:17:23;99125.44;;;16.14;88.73
70544;BME280;58097;48.364;-1.224;2023-08-30T06:19:48;99128.84;;;16.16;88.94
70544;BME280;58097;48.364;-1.224;2023-08-30T06:22:14;99124.13;;;16.17;88.99
70544;BME280;58097;48.364;-1.224;2023-08-30T06:24:40;99129.72;;;16.17;89.36
70544;BME280;58097;48.364;-1.224;2023-08-30T06:27:05;99129.50;;;16.18;88.87
70544;BME280;58097;48.364;-1.224;2023-08-30T06:29:30;99125.84;;;16.18;89.33
70544;BME280;58097;48.364;-1.224;2023-08-30T06:31:57;99134.66;;;16.21;89.12
70544;BME280;58097;48.364;-1.224;2023-08-30T06:34:23;99133.16;;;16.19;89.70
70544;BME280;58097;48.364;-1.224;2023-08-30T06:36:48;99135.75;;;16.20;89.45
70544;BME280;58097;48.364;-1.224;2023-08-30T06:39:14;99125.44;;;16.21;89.70
70544;BME280;58097;48.364;-1.224;2023-08-30T06:41:39;99128.88;;;16.23;89.88
70544;BME280;58097;48.364;-1.224;2023-08-30T06:44:05;99135.75;;;16.20;89.58
70544;BME280;58097;48.364;-1.224;2023-08-30T06:46:30;99141.97;;;16.22;89.61
70544;BME280;58097;48.364;-1.224;2023-08-30T06:48:55;99132.53;;;16.23;90.08
70544;BME280;58097;48.364;-1.224;2023-08-30T06:51:21;99138.31;;;16.22;90.09
70544;BME280;58097;48.364;-1.224;2023-08-30T06:53:46;99137.84;;;16.18;89.99
70544;BME280;58097;48.364;-1.224;2023-08-30T06:56:12;99136.59;;;16.21;89.79
70544;BME280;58097;48.364;-1.224;2023-08-30T06:58:37;99130.59;;;16.24;89.57
70544;BME280;58097;48.364;-1.224;2023-08-30T07:01:03;99128.44;;;16.19;90.47
70544;BME280;58097;48.364;-1.224;2023-08-30T07:03:28;99134.88;;;16.20;89.81
70544;BME280;58097;48.364;-1.224;2023-08-30T07:05:54;99137.66;;;16.26;89.75
70544;BME280;58097;48.364;-1.224;2023-08-30T07:08:19;99124.97;;;16.37;89.96
70544;BME280;58097;48.364;-1.224;2023-08-30T07:10:45;99128.59;;;16.51;90.14
70544;BME280;58097;48.364;-1.224;2023-08-30T07:13:10;99133.28;;;16.70;90.47
70544;BME280;58097;48.364;-1.224;2023-08-30T07:15:38;99132.59;;;16.88;90.87
70544;BME280;58097;48.364;-1.224;2023-08-30T07:18:05;99133.16;;;17.03;89.82
70544;BME280;58097;48.364;-1.224;2023-08-30T07:20:31;99143.19;;;17.17;89.70
70544;BME280;58097;48.364;-1.224;2023-08-30T07:22:56;99146.97;;;17.36;89.86
70544;BME280;58097;48.364;-1.224;2023-08-30T07:25:21;99152.44;;;17.49;89.18
70544;BME280;58097;48.364;-1.224;2023-08-30T07:27:47;99153.25;;;17.56;88.70
70544;BME280;58097;48.364;-1.224;2023-08-30T07:30:12;99155.78;;;17.71;87.73
70544;BME280;58097;48.364;-1.224;2023-08-30T07:32:38;99155.06;;;17.82;88.36
70544;BME280;58097;48.364;-1.224;2023-08-30T07:35:03;99152.88;;;17.84;85.98
70544;BME280;58097;48.364;-1.224;2023-08-30T07:37:29;99161.50;;;17.83;86.51
70544;BME280;58097;48.364;-1.224;2023-08-30T07:39:54;99163.66;;;17.81;85.43
70544;BME280;58097;48.364;-1.224;2023-08-30T07:42:20;99163.03;;;17.79;84.86
70544;BME280;58097;48.364;-1.224;2023-08-30T07:44:45;99168.84;;;17.77;85.13
70544;BME280;58097;48.364;-1.224;2023-08-30T07:47:10;99164.13;;;17.78;84.36
70544;BME280;58097;48.364;-1.224;2023-08-30T07:49:36;99165.47;;;17.69;84.19
70544;BME280;58097;48.364;-1.224;2023-08-30T07:52:01;99173.00;;;17.61;84.35
70544;BME280;58097;48.364;-1.224;2023-08-30T07:54:28;99167.28;;;17.50;82.99
70544;BME280;58097;48.364;-1.224;2023-08-30T07:56:53;99172.69;;;17.45;83.77
70544;BME280;58097;48.364;-1.224;2023-08-30T07:59:18;99177.41;;;17.44;84.05
70544;BME280;58097;48.364;-1.224;2023-08-30T08:01:44;99177.47;;;17.38;83.27
70544;BME280;58097;48.364;-1.224;2023-08-30T08:04:09;99175.75;;;17.37;82.62
70544;BME280;58097;48.364;-1.224;2023-08-30T08:06:34;99175.75;;;17.37;82.60
70544;BME280;58097;48.364;-1.224;2023-08-30T08:09:00;99171.44;;;17.34;82.83
70544;BME280;58097;48.364;-1.224;2023-08-30T08:11:26;99182.19;;;17.37;82.82
70544;BME280;58097;48.364;-1.224;2023-08-30T08:13:51;99188.63;;;17.38;82.63
70544;BME280;58097;48.364;-1.224;2023-08-30T08:16:16;99187.72;;;17.44;82.60
70544;BME280;58097;48.364;-1.224;2023-08-30T08:18:42;99186.44;;;17.46;80.23
70544;BME280;58097;48.364;-1.224;2023-08-30T08:21:07;99181.81;;;17.58;82.00
70544;BME280;58097;48.364;-1.224;2023-08-30T08:23:32;99190.19;;;17.72;81.61
70544;BME280;58097;48.364;-1.224;2023-08-30T08:25:59;99195.94;;;17.77;80.32
70544;BME280;58097;48.364;-1.224;2023-08-30T08:28:24;99195.09;;;17.76;77.71
70544;BME280;58097;48.364;-1.224;2023-08-30T08:30:50;99193.19;;;17.70;78.70
70544;BME280;58097;48.364;-1.224;2023-08-30T08:33:16;99186.75;;;17.70;79.91
70544;BME280;58097;48.364;-1.224;2023-08-30T08:35:43;99191.50;;;17.69;79.16
70544;BME280;58097;48.364;-1.224;2023-08-30T08:38:09;99190.19;;;17.72;79.65
70544;BME280;58097;48.364;-1.224;2023-08-30T08:40:38;99185.66;;;17.71;78.92
70544;BME280;58097;48.364;-1.224;2023-08-30T08:43:06;99197.75;;;17.96;80.20
70544;BME280;58097;48.364;-1.224;2023-08-30T08:45:35;99203.16;;;18.16;79.18
70544;BME280;58097;48.364;-1.224;2023-08-30T08:48:05;99196.47;;;18.23;78.27
70544;BME280;58097;48.364;-1.224;2023-08-30T08:50:32;99191.06;;;18.47;79.21
70544;BME280;58097;48.364;-1.224;2023-08-30T08:52:59;99198.44;;;18.66;78.17
70544;BME280;58097;48.364;-1.224;2023-08-30T08:55:26;99200.19;;;18.85;77.53
70544;BME280;58097;48.364;-1.224;2023-08-30T08:57:53;99193.72;;;19.03;77.66
70544;BME280;58097;48.364;-1.224;2023-08-30T09:00:19;99206.50;;;19.17;75.79
70544;BME280;58097;48.364;-1.224;2023-08-30T09:02:45;99204.50;;;19.36;77.54
70544;BME280;58097;48.364;-1.224;2023-08-30T09:05:11;99204.28;;;19.56;76.71
70544;BME280;58097;48.364;-1.224;2023-08-30T09:07:37;99207.63;;;19.65;76.22
70544;BME280;58097;48.364;-1.224;2023-08-30T09:10:03;99205.34;;;19.73;74.47
70544;BME280;58097;48.364;-1.224;2023-08-30T09:12:32;99204.75;;;19.71;73.79
70544;BME280;58097;48.364;-1.224;2023-08-30T09:14:57;99200.84;;;19.72;73.96
70544;BME280;58097;48.364;-1.224;2023-08-30T09:17:23;99204.75;;;19.71;74.25
70544;BME280;58097;48.364;-1.224;2023-08-30T09:19:49;99207.78;;;19.70;73.73
70544;BME280;58097;48.364;-1.224;2023-08-30T09:22:14;99212.66;;;19.74;72.95
70544;BME280;58097;48.364;-1.224;2023-08-30T09:24:40;99215.59;;;19.79;72.56
70544;BME280;58097;48.364;-1.224;2023-08-30T09:27:06;99222.81;;;19.87;71.68
70544;BME280;58097;48.364;-1.224;2023-08-30T09:29:32;99228.72;;;19.97;68.96
70544;BME280;58097;48.364;-1.224;2023-08-30T09:31:57;99220.63;;;19.89;66.54
70544;BME280;58097;48.364;-1.224;2023-08-30T09:34:25;99222.81;;;19.87;66.50
70544;BME280;58097;48.364;-1.224;2023-08-30T09:36:51;99232.91;;;20.06;70.61
70544;BME280;58097;48.364;-1.224;2023-08-30T09:39:17;99237.31;;;20.14;67.76
70544;BME280;58097;48.364;-1.224;2023-08-30T09:41:43;99221.94;;;20.17;68.95
70544;BME280;58097;48.364;-1.224;2023-08-30T09:46:43;99224.88;;;20.22;62.22
70544;BME280;58097;48.364;-1.224;2023-08-30T09:49:09;99212.22;;;20.31;65.90
70544;BME280;58097;48.364;-1.224;2023-08-30T09:51:35;99208.72;;;20.47;68.96
70544;BME280;58097;48.364;-1.224;2023-08-30T09:54:04;99213.72;;;20.45;65.31
70544;BME280;58097;48.364;-1.224;2023-08-30T09:56:31;99216.25;;;20.35;67.47
70544;BME280;58097;48.364;-1.224;2023-08-30T09:58:58;99205.72;;;20.19;64.73
70544;BME280;58097;48.364;-1.224;2023-08-30T10:01:26;99199.84;;;20.08;64.34
70544;BME280;58097;48.364;-1.224;2023-08-30T10:03:54;99202.22;;;19.93;68.07
70544;BME280;58097;48.364;-1.224;2023-08-30T10:06:20;99209.25;;;19.72;63.60
70544;BME280;58097;48.364;-1.224;2023-08-30T10:08:48;99221.00;;;19.63;66.05
70544;BME280;58097;48.364;-1.224;2023-08-30T10:11:14;99219.91;;;19.64;63.94
70544;BME280;58097;48.364;-1.224;2023-08-30T10:13:42;99211.94;;;19.79;64.78
70544;BME280;58097;48.364;-1.224;2023-08-30T10:16:08;99212.16;;;19.96;66.85
70544;BME280;58097;48.364;-1.224;2023-08-30T10:18:37;99209.88;;;20.16;65.05
70544;BME280;58097;48.364;-1.224;2023-08-30T10:21:06;99210.03;;;20.33;65.76
70544;BME280;58097;48.364;-1.224;2023-08-30T10:23:34;99222.75;;;20.47;63.67
70544;BME280;58097;48.364;-1.224;2023-08-30T10:26:03;99214.91;;;20.37;59.75
70544;BME280;58097;48.364;-1.224;2023-08-30T10:28:29;99222.31;;;20.20;61.08
70544;BME280;58097;48.364;-1.224;2023-08-30T10:30:55;99216.19;;;20.11;62.26
70544;BME280;58097;48.364;-1.224;2023-08-30T10:33:20;99222.41;;;20.02;63.89
70544;BME280;58097;48.364;-1.224;2023-08-30T10:35:51;99231.78;;;19.96;63.86
70544;BME280;58097;48.364;-1.224;2023-08-30T10:38:26;99225.63;;;19.87;62.76
70544;BME280;58097;48.364;-1.224;2023-08-30T10:40:52;99227.31;;;19.76;62.06
70544;BME280;58097;48.364;-1.224;2023-08-30T10:43:28;99227.66;;;19.68;60.50
70544;BME280;58097;48.364;-1.224;2023-08-30T10:46:05;99224.28;;;19.60;61.50
70544;BME280;58097;48.364;-1.224;2023-08-30T10:48:39;99224.44;;;19.65;61.43
70544;BME280;58097;48.364;-1.224;2023-08-30T10:51:19;99225.50;;;19.82;64.51
70544;BME280;58097;48.364;-1.224;2023-08-30T10:53:55;99236.19;;;20.03;62.89
70544;BME280;58097;48.364;-1.224;2023-08-30T10:56:27;99229.56;;;20.39;63.65
70544;BME280;58097;48.364;-1.224;2023-08-30T10:58:53;99223.28;;;20.67;65.12
70544;BME280;58097;48.364;-1.224;2023-08-30T11:01:18;99213.50;;;20.93;60.34
70544;BME280;58097;48.364;-1.224;2023-08-30T11:03:44;99216.69;;;20.97;61.13
70544;BME280;58097;48.364;-1.224;2023-08-30T11:06:13;99220.09;;;20.99;61.33
70544;BME280;58097;48.364;-1.224;2023-08-30T11:08:39;99218.75;;;20.90;61.51
70544;BME280;58097;48.364;-1.224;2023-08-30T11:11:05;99220.94;;;20.76;60.30
70544;BME280;58097;48.364;-1.224;2023-08-30T11:13:32;99219.00;;;20.53;62.26
70544;BME280;58097;48.364;-1.224;2023-08-30T11:16:03;99222.88;;;20.40;62.47
70544;BME280;58097;48.364;-1.224;2023-08-30T11:18:30;99212.34;;;20.24;61.86
70544;BME280;58097;48.364;-1.224;2023-08-30T11:21:01;99214.38;;;20.05;62.10
70544;BME280;58097;48.364;-1.224;2023-08-30T11:23:27;99215.63;;;19.91;63.18
70544;BME280;58097;48.364;-1.224;2023-08-30T11:25:53;99213.53;;;19.75;63.23
70544;BME280;58097;48.364;-1.224;2023-08-30T11:28:22;99221.19;;;19.68;63.27
70544;BME280;58097;48.364;-1.224;2023-08-30T11:30:48;99207.63;;;19.65;63.47
70544;BME280;58097;48.364;-1.224;2023-08-30T11:33:16;99211.59;;;19.57;64.11
70544;BME280;58097;48.364;-1.224;2023-08-30T11:35:43;99205.53;;;19.60;64.99
70544;BME280;58097;48.364;-1.224;2023-08-30T11:38:08;99200.06;;;19.65;65.07
70544;BME280;58097;48.364;-1.224;2023-08-30T11:40:34;99210.59;;;19.70;65.18
70544;BME280;58097;48.364;-1.224;2023-08-30T11:43:00;99218.75;;;19.71;65.03
70544;BME280;58097;48.364;-1.224;2023-08-30T11:45:28;99218.28;;;19.74;65.64
70544;BME280;58097;48.364;-1.224;2023-08-30T11:47:53;99218.28;;;19.74;64.77
70544;BME280;58097;48.364;-1.224;2023-08-30T11:50:19;99221.81;;;19.70;64.08
70544;BME280;58097;48.364;-1.224;2023-08-30T11:52:46;99219.69;;;19.65;62.76
70544;BME280;58097;48.364;-1.224;2023-08-30T11:55:12;99224.75;;;19.57;62.33
70544;BME280;58097;48.364;-1.224;2023-08-30T11:57:38;99223.06;;;19.56;64.44
70544;BME280;58097;48.364;-1.224;2023-08-30T12:00:12;99229.75;;;19.55;63.19
70544;BME280;58097;48.364;-1.224;2023-08-30T12:02:39;99234.09;;;19.50;64.64
70544;BME280;58097;48.364;-1.224;2023-08-30T12:05:05;99225.41;;;19.40;62.53
70544;BME280;58097;48.364;-1.224;2023-08-30T12:07:30;99224.59;;;19.33;61.99
70544;BME280;58097;48.364;-1.224;2023-08-30T12:10:06;99217.13;;;19.45;63.21
70544;BME280;58097;48.364;-1.224;2023-08-30T12:12:31;99217.22;;;19.57;63.80
70544;BME280;58097;48.364;-1.224;2023-08-30T12:14:57;99213.63;;;19.68;64.11
70544;BME280;58097;48.364;-1.224;2023-08-30T12:17:23;99211.13;;;19.90;63.01
70544;BME280;58097;48.364;-1.224;2023-08-30T12:19:55;99207.78;;;20.11;64.98
70544;BME280;58097;48.364;-1.224;2023-08-30T12:22:21;99211.47;;;20.24;62.27
70544;BME280;58097;48.364;-1.224;2023-08-30T12:24:46;99212.22;;;20.31;62.01
70544;BME280;58097;48.364;-1.224;2023-08-30T12:27:12;99210.22;;;20.20;61.62
70544;BME280;58097;48.364;-1.224;2023-08-30T12:29:38;99216.78;;;20.02;59.93
70544;BME280;58097;48.364;-1.224;2023-08-30T12:32:04;99217.88;;;20.01;61.36
70544;BME280;58097;48.364;-1.224;2023-08-30T12:34:29;99213.38;;;20.00;60.86
70544;BME280;58097;48.364;-1.224;2023-08-30T12:36:55;99216.78;;;20.02;59.82
70544;BME280;58097;48.364;-1.224;2023-08-30T12:39:21;99218.91;;;20.18;59.41
70544;BME280;58097;48.364;-1.224;2023-08-30T12:41:46;99217.16;;;20.47;59.99
70544;BME280;58097;48.364;-1.224;2023-08-30T12:44:12;99210.09;;;20.68;58.39
70544;BME280;58097;48.364;-1.224;2023-08-30T12:46:37;99214.84;;;20.79;56.98
70544;BME280;58097;48.364;-1.224;2023-08-30T12:49:03;99213.41;;;20.88;54.55
70544;BME280;58097;48.364;-1.224;2023-08-30T12:51:28;99218.00;;;21.06;55.40
70544;BME280;58097;48.364;-1.224;2023-08-30T12:53:55;99213.88;;;20.97;52.70
70544;BME280;58097;48.364;-1.224;2023-08-30T12:56:21;99218.28;;;20.93;54.57